Time,TemperatureF,DewpointF,PressureIn,WindDirection,WindDirectionDegrees,WindSpeedMPH,WindSpeedGustMPH,Humidity,HourlyPrecipIn,Conditions,Clouds,dailyrainin,SolarRadiationWatts/m^2,SoftwareType,DateUTC
2013-07-01 00:53:00,75.0,48.0,-100.00,WSW,257,10.0,12.0,39,0.00,,,-99.99,0.000000,,2013-07-01 07:53:00,
2013-07-01 01:52:00,73.0,49.0,-100.00,WSW,255,10.0,11.0,42,0.00,,,-99.99,0.000000,,2013-07-01 08:52:00,
2013-07-01 02:53:00,72.0,50.0,-100.00,West,261,14.0,16.0,46,0.00,,,-99.99,0.000000,,2013-07-01 09:53:00,
2013-07-01 03:52:00,72.0,48.0,-100.00,West,263,12.0,16.0,43,0.00,,,-99.99,0.000000,,2013-07-01 10:52:00,
2013-07-01 10:53:00,85.0,53.0,-100.00,East,81,8.0,15.0,33,0.00,,,-99.99,666.000000,,2013-07-01 17:53:00,
2013-07-01 11:02:00,85.0,53.0,-100.00,East,81,8.0,15.0,33,0.00,,,-99.99,666.000000,,2013-07-01 18:02:00,
2013-07-01 11:11:00,85.0,53.0,-100.00,East,81,8.0,15.0,33,0.00,,,-99.99,666.000000,,2013-07-01 18:11:00,
2013-07-01 11:22:00,85.0,53.0,-100.00,East,81,8.0,15.0,33,0.00,,,-99.99,666.000000,,2013-07-01 18:22:00,
2013-07-01 12:21:00,94.0,57.0,-100.00,WSW,254,6.0,12.0,29,0.00,,,-99.99,804.000000,,2013-07-01 19:21:00,
2013-07-01 12:53:00,95.0,58.0,-100.00,West,271,6.0,11.0,29,0.00,,,-99.99,897.000000,,2013-07-01 19:53:00,
2013-07-01 13:01:00,95.0,58.0,-100.00,West,271,6.0,11.0,29,0.00,,,-99.99,897.000000,,2013-07-01 20:01:00,
2013-07-01 13:11:00,95.0,58.0,-100.00,West,271,6.0,11.0,29,0.00,,,-99.99,897.000000,,2013-07-01 20:11:00,
2013-07-01 13:21:00,95.0,58.0,-100.00,West,271,6.0,11.0,29,0.00,,,-99.99,897.000000,,2013-07-01 20:21:00,
2013-07-01 13:52:00,96.0,60.0,-100.00,West,260,9.0,14.0,31,0.00,,,-99.99,930.000000,,2013-07-01 20:52:00,
2013-07-01 14:01:00,96.0,60.0,-100.00,West,260,9.0,14.0,31,0.00,,,-99.99,930.000000,,2013-07-01 21:01:00,
2013-07-01 14:11:00,96.0,60.0,-100.00,West,260,9.0,14.0,31,0.00,,,-99.99,930.000000,,2013-07-01 21:11:00,
2013-07-01 14:23:00,96.0,60.0,-100.00,West,260,9.0,14.0,31,0.00,,,-99.99,930.000000,,2013-07-01 21:23:00,
2013-07-01 14:53:00,95.0,56.0,-100.00,WSW,244,11.0,15.0,27,0.00,,,-99.99,918.000000,,2013-07-01 21:53:00,
2013-07-01 15:01:00,95.0,56.0,-100.00,WSW,244,11.0,15.0,27,0.00,,,-99.99,918.000000,,2013-07-01 22:01:00,
2013-07-01 15:11:00,95.0,56.0,-100.00,WSW,244,11.0,15.0,27,0.00,,,-99.99,918.000000,,2013-07-01 22:11:00,
2013-07-01 15:23:00,95.0,56.0,-100.00,WSW,244,11.0,15.0,27,0.00,,,-99.99,918.000000,,2013-07-01 22:23:00,
2013-07-01 15:53:00,94.0,53.0,-100.00,WSW,246,14.0,17.0,25,0.00,,,-99.99,850.000000,,2013-07-01 22:53:00,
2013-07-01 16:01:00,94.0,53.0,-100.00,WSW,246,14.0,17.0,25,0.00,,,-99.99,850.000000,,2013-07-01 23:01:00,
2013-07-01 16:11:00,94.0,53.0,-100.00,WSW,246,14.0,17.0,25,0.00,,,-99.99,850.000000,,2013-07-01 23:11:00,
2013-07-01 16:22:00,94.0,53.0,-100.00,WSW,246,14.0,17.0,25,0.00,,,-99.99,850.000000,,2013-07-01 23:22:00,
2013-07-01 16:53:00,94.0,53.0,-100.00,WSW,251,11.0,17.0,25,0.00,,,-99.99,642.000000,,2013-07-01 23:53:00,
2013-07-01 17:01:00,94.0,53.0,-100.00,WSW,251,11.0,17.0,25,0.00,,,-99.99,642.000000,,2013-07-02 00:01:00,
2013-07-01 17:11:00,94.0,53.0,-100.00,WSW,251,11.0,17.0,25,0.00,,,-99.99,642.000000,,2013-07-02 00:11:00,
2013-07-01 17:22:00,94.0,53.0,-100.00,WSW,251,11.0,17.0,25,0.00,,,-99.99,642.000000,,2013-07-02 00:22:00,
2013-07-01 17:53:00,93.0,53.0,-100.00,WSW,253,8.0,13.0,26,0.00,,,0.00,573.000000,,2013-07-02 00:53:00,
2013-07-01 18:01:00,93.0,53.0,-100.00,WSW,253,8.0,13.0,26,0.00,,,0.00,573.000000,,2013-07-02 01:01:00,
2013-07-01 18:11:00,93.0,53.0,-100.00,WSW,253,8.0,13.0,26,0.00,,,0.00,573.000000,,2013-07-02 01:11:00,
2013-07-01 18:22:00,93.0,53.0,-100.00,WSW,253,8.0,13.0,26,0.00,,,0.00,573.000000,,2013-07-02 01:22:00,
2013-07-01 18:53:00,92.0,53.0,-100.00,WSW,254,8.0,11.0,27,0.00,,,0.00,403.000000,,2013-07-02 01:53:00,
2013-07-01 19:01:00,92.0,53.0,-100.00,WSW,254,8.0,11.0,27,0.00,,,0.00,403.000000,,2013-07-02 02:01:00,
2013-07-01 19:11:00,92.0,53.0,-100.00,WSW,254,8.0,11.0,27,0.00,,,0.00,403.000000,,2013-07-02 02:11:00,
2013-07-01 19:21:00,92.0,53.0,-100.00,WSW,254,8.0,11.0,27,0.00,,,0.00,403.000000,,2013-07-02 02:21:00,
2013-07-01 19:53:00,86.0,52.0,-100.00,WSW,258,10.0,14.0,31,0.00,,,0.00,206.000000,,2013-07-02 02:53:00,
2013-07-01 20:01:00,86.0,52.0,-100.00,WSW,258,10.0,14.0,31,0.00,,,0.00,206.000000,,2013-07-02 03:01:00,
2013-07-01 20:11:00,86.0,52.0,-100.00,WSW,258,10.0,14.0,31,0.00,,,0.00,206.000000,,2013-07-02 03:11:00,
2013-07-01 20:24:00,86.0,52.0,-100.00,WSW,258,10.0,14.0,31,0.00,,,0.00,206.000000,,2013-07-02 03:24:00,
2013-07-01 20:53:00,85.0,49.0,-100.00,WNW,297,5.0,12.0,29,0.00,,,0.00,63.000000,,2013-07-02 03:53:00,
2013-07-01 21:02:00,85.0,49.0,-100.00,WNW,297,5.0,12.0,29,0.00,,,0.00,63.000000,,2013-07-02 04:02:00,
2013-07-01 21:11:00,85.0,49.0,-100.00,WNW,297,5.0,12.0,29,0.00,,,0.00,63.000000,,2013-07-02 04:11:00,
2013-07-01 21:21:00,85.0,49.0,-100.00,WNW,297,5.0,12.0,29,0.00,,,0.00,63.000000,,2013-07-02 04:21:00,
2013-07-01 21:53:00,84.0,46.0,-100.00,WNW,292,8.0,11.0,27,0.00,,,0.00,1.000000,,2013-07-02 04:53:00,
2013-07-01 22:01:00,84.0,46.0,-100.00,WNW,292,8.0,11.0,27,0.00,,,0.00,1.000000,,2013-07-02 05:01:00,
2013-07-01 22:11:00,84.0,46.0,-100.00,WNW,292,8.0,11.0,27,0.00,,,0.00,1.000000,,2013-07-02 05:11:00,
2013-07-01 22:22:00,84.0,46.0,-100.00,WNW,292,8.0,11.0,27,0.00,,,0.00,1.000000,,2013-07-02 05:22:00,
2013-07-01 22:53:00,86.0,47.0,-100.00,NW,320,7.0,14.0,26,0.00,,,0.00,0.000000,,2013-07-02 05:53:00,
2013-07-01 23:53:00,86.0,50.0,-100.00,NW,313,7.0,13.0,29,0.00,,,0.00,0.000000,,2013-07-02 06:53:00,